createdAt,value
2018-06-30T00:01:11.352Z,75.20
2018-06-30T00:03:45.944Z,75.30
2018-06-30T00:06:14.986Z,75.60
2018-06-30T00:13:41.468Z,75.40
2018-06-30T00:16:10.507Z,75.70
2018-06-30T00:18:39.703Z,75.80
2018-06-30T00:21:09.084Z,75.90
2018-06-30T00:23:38.516Z,76.00
2018-06-30T00:26:07.807Z,76.10
2018-06-30T00:28:36.853Z,76.40
2018-06-30T00:33:35.185Z,77.00
2018-06-30T00:36:04.504Z,76.90
2018-06-30T00:38:33.543Z,77.30
2018-06-30T00:43:31.324Z,78.30
2018-06-30T00:46:00.393Z,77.40
2018-06-30T00:48:29.502Z,77.70
2018-06-30T00:54:08.276Z,77.80
2018-06-30T00:56:37.336Z,77.80
2018-06-30T00:59:06.436Z,78.10
2018-06-30T01:01:35.497Z,78.10
2018-06-30T01:04:04.836Z,78.20
2018-06-30T01:06:33.904Z,78.10
2018-06-30T01:11:31.739Z,79.40
2018-06-30T01:14:00.820Z,79.30
2018-06-30T01:16:29.896Z,78.70
2018-06-30T01:18:58.956Z,78.60
2018-06-30T01:21:28.041Z,78.50
2018-06-30T01:23:57.092Z,78.50
2018-06-30T01:26:26.192Z,78.50
2018-06-30T01:28:55.257Z,78.50
2018-06-30T01:36:21.700Z,78.90
2018-06-30T01:38:50.760Z,78.80
2018-06-30T01:41:19.839Z,79.00
2018-06-30T01:43:48.905Z,79.70
2018-06-30T01:46:17.974Z,79.40
2018-06-30T01:48:47.144Z,79.80
2018-06-30T01:51:16.212Z,79.50
2018-06-30T01:56:13.952Z,79.60
2018-06-30T01:58:42.995Z,79.80
2018-06-30T02:03:40.756Z,80.00
2018-06-30T02:06:09.829Z,80.30
2018-06-30T02:08:38.883Z,80.60
2018-06-30T02:11:08.324Z,80.50
2018-06-30T02:13:37.471Z,80.70
2018-06-30T02:18:35.231Z,80.90
2018-06-30T02:21:04.305Z,81.00
2018-06-30T02:23:33.366Z,81.10
2018-06-30T02:26:02.427Z,81.20
2018-06-30T02:31:00.199Z,81.30
2018-06-30T02:33:29.256Z,81.40
2018-06-30T02:35:58.337Z,81.30
2018-06-30T02:38:27.401Z,81.40
2018-06-30T02:40:56.473Z,81.40
2018-06-30T02:43:25.533Z,82.10
2018-06-30T02:45:54.644Z,81.70
2018-06-30T02:48:23.689Z,82.10
2018-06-30T02:55:50.127Z,82.10
2018-06-30T02:58:19.196Z,81.30
2018-06-30T03:00:48.365Z,81.10
2018-06-30T03:05:46.112Z,80.20
2018-06-30T03:08:15.160Z,79.70
2018-06-30T03:10:44.225Z,79.50
2018-06-30T03:13:13.265Z,79.20
2018-06-30T03:15:42.352Z,79.10
2018-06-30T03:18:11.400Z,78.80
2018-06-30T03:20:40.473Z,79.00
2018-06-30T03:23:09.519Z,78.80
2018-06-30T03:25:38.580Z,78.80
2018-06-30T03:28:07.632Z,78.80
2018-06-30T03:30:36.696Z,78.70
2018-06-30T03:38:03.143Z,78.90
2018-06-30T03:40:32.222Z,79.10
2018-06-30T03:43:01.272Z,79.30
2018-06-30T03:45:30.329Z,79.60
2018-06-30T03:47:59.376Z,79.80
2018-06-30T03:50:28.441Z,79.80
2018-06-30T03:55:26.256Z,80.30
2018-06-30T03:57:55.315Z,79.90
2018-06-30T04:00:24.375Z,80.30
2018-06-30T04:02:53.428Z,80.10
2018-06-30T04:05:22.659Z,79.50
2018-06-30T04:07:51.715Z,79.60
2018-06-30T04:12:49.490Z,79.20
2018-06-30T04:17:47.233Z,78.40
2018-06-30T04:20:16.276Z,78.50
2018-06-30T04:22:45.368Z,78.50
2018-06-30T04:27:43.139Z,77.30
2018-06-30T04:32:41.180Z,77.10
2018-06-30T04:35:10.225Z,76.60
2018-06-30T04:40:08.001Z,75.20
2018-06-30T04:42:37.064Z,74.50
2018-06-30T04:45:06.330Z,74.80
2018-06-30T04:47:35.375Z,74.80
2018-06-30T04:50:04.424Z,75.00
2018-06-30T04:52:33.496Z,74.20
2018-06-30T04:57:33.237Z,72.40
2018-06-30T05:02:31.137Z,72.40
2018-06-30T05:05:00.204Z,71.50
2018-06-30T05:09:58.215Z,71.10
2018-06-30T05:12:27.320Z,70.70
2018-06-30T05:14:56.616Z,70.10
2018-06-30T05:17:25.672Z,69.30
2018-06-30T05:19:54.720Z,69.30
2018-06-30T05:22:23.791Z,68.90
2018-06-30T05:24:52.844Z,68.70
2018-06-30T05:27:21.915Z,68.10
2018-06-30T05:29:51.004Z,68.10
2018-06-30T05:32:20.067Z,67.90
2018-06-30T05:34:49.120Z,67.50
2018-06-30T05:37:18.188Z,67.10
2018-06-30T05:39:47.320Z,67.10
2018-06-30T05:42:16.480Z,68.00
2018-06-30T05:44:45.555Z,66.70
2018-06-30T05:47:14.620Z,66.70
2018-06-30T05:49:43.664Z,66.10
2018-06-30T05:52:12.728Z,65.80
2018-06-30T05:57:10.460Z,65.00
2018-06-30T05:59:39.512Z,64.70
2018-06-30T06:02:08.575Z,64.00
2018-06-30T06:04:37.624Z,64.60
2018-06-30T06:07:06.692Z,63.70
2018-06-30T06:12:04.456Z,62.20
2018-06-30T06:14:33.525Z,62.90
2018-06-30T06:17:02.587Z,62.00
2018-06-30T06:19:31.632Z,60.50
2018-06-30T06:22:00.700Z,60.00
2018-06-30T06:24:29.748Z,59.80
2018-06-30T06:26:58.816Z,59.30
2018-06-30T06:29:27.864Z,58.70
2018-06-30T06:31:56.932Z,57.20
2018-06-30T06:36:55.684Z,54.50
2018-06-30T06:39:24.736Z,53.30
2018-06-30T06:44:22.469Z,52.80
2018-06-30T06:46:51.540Z,51.30
2018-06-30T06:49:20.628Z,51.30
2018-06-30T06:51:49.696Z,50.70
2018-06-30T06:56:47.436Z,48.80
2018-06-30T06:59:16.480Z,48.40
2018-06-30T07:04:14.272Z,46.80
2018-06-30T07:09:12.408Z,46.30
2018-06-30T07:11:41.459Z,46.60
2018-06-30T07:16:39.956Z,42.80
2018-06-30T07:19:09.063Z,43.50
2018-06-30T07:21:38.083Z,41.80
2018-06-30T07:24:07.179Z,41.40
2018-06-30T07:26:36.331Z,42.10
2018-06-30T07:34:02.840Z,40.60
2018-06-30T07:36:31.879Z,40.30
2018-06-30T07:39:00.947Z,39.50
2018-06-30T07:41:30.005Z,39.10
2018-06-30T07:46:27.752Z,35.80
2018-06-30T07:48:56.827Z,37.70
2018-06-30T07:51:25.873Z,36.20
2018-06-30T07:58:52.292Z,34.00
2018-06-30T08:01:21.344Z,34.10
2018-06-30T08:03:50.403Z,33.90
2018-06-30T08:06:19.456Z,32.40
2018-06-30T08:08:48.522Z,33.00
2018-06-30T08:13:46.329Z,31.80
2018-06-30T08:16:15.366Z,32.50
2018-06-30T08:18:44.440Z,33.40
2018-06-30T08:21:13.541Z,33.00
2018-06-30T08:23:42.996Z,32.10
2018-06-30T08:28:40.727Z,31.50
2018-06-30T08:31:09.776Z,30.80
2018-06-30T08:36:07.796Z,30.40
2018-06-30T08:38:36.860Z,31.70
2018-06-30T08:41:05.933Z,31.40
2018-06-30T08:43:35.005Z,31.10
2018-06-30T08:46:04.052Z,31.20
2018-06-30T08:51:01.846Z,30.50
2018-06-30T08:53:30.876Z,31.30
2018-06-30T08:55:59.915Z,32.00
2018-06-30T09:00:57.688Z,32.00
2018-06-30T09:03:26.767Z,31.50
2018-06-30T09:05:55.828Z,31.80
2018-06-30T09:08:24.897Z,32.70
2018-06-30T09:10:53.952Z,32.60
2018-06-30T09:13:23.047Z,31.50
2018-06-30T09:15:52.112Z,31.60
2018-06-30T09:18:21.177Z,31.50
2018-06-30T09:23:18.917Z,31.50
2018-06-30T09:25:47.964Z,30.10
2018-06-30T09:30:45.701Z,31.00
2018-06-30T09:33:14.783Z,30.40
2018-06-30T09:35:43.846Z,30.60
2018-06-30T09:38:12.903Z,30.50
2018-06-30T09:40:42.088Z,30.70
2018-06-30T09:43:11.156Z,30.80
2018-06-30T09:45:40.201Z,31.00
2018-06-30T09:48:09.275Z,30.20
2018-06-30T09:50:38.341Z,29.80
2018-06-30T09:53:07.747Z,30.10
2018-06-30T09:55:36.792Z,29.40
2018-06-30T09:58:05.855Z,29.30
2018-06-30T10:00:39.247Z,31.10
2018-06-30T10:03:08.443Z,30.40
2018-06-30T10:05:37.492Z,28.60
2018-06-30T10:10:35.292Z,29.90
2018-06-30T10:13:04.346Z,30.10
2018-06-30T10:15:33.436Z,29.60
2018-06-30T10:18:02.493Z,29.60
2018-06-30T10:20:31.557Z,29.00
2018-06-30T10:25:29.294Z,28.20
2018-06-30T10:27:58.340Z,28.50
2018-06-30T10:40:22.139Z,28.90
2018-06-30T10:42:51.272Z,28.40
2018-06-30T10:50:17.736Z,29.30
2018-06-30T10:52:46.776Z,29.30
2018-06-30T10:55:15.856Z,27.50
2018-06-30T10:57:44.905Z,27.80
2018-06-30T11:00:14.024Z,27.70
2018-06-30T11:02:43.053Z,28.20
2018-06-30T11:05:12.650Z,27.40
2018-06-30T11:07:42.072Z,27.90
2018-06-30T11:10:11.179Z,27.90
2018-06-30T11:12:40.263Z,27.80
2018-06-30T11:15:09.349Z,27.30
2018-06-30T11:17:38.555Z,28.40
2018-06-30T11:20:07.619Z,27.20
2018-06-30T11:22:36.648Z,27.50
2018-06-30T11:25:06.581Z,27.10
2018-06-30T11:27:35.659Z,27.20
2018-06-30T11:30:05.297Z,26.10
2018-06-30T11:32:35.701Z,27.60
2018-06-30T11:35:05.008Z,26.00
2018-06-30T11:37:34.166Z,25.90
2018-06-30T11:45:00.589Z,27.30
2018-06-30T11:47:29.632Z,25.70
2018-06-30T11:49:58.684Z,25.30
2018-06-30T11:52:27.734Z,26.60
2018-06-30T11:54:57.276Z,26.20
2018-06-30T11:57:26.327Z,26.90
2018-06-30T11:59:55.388Z,26.70
2018-06-30T12:02:24.436Z,27.70
2018-06-30T12:04:53.501Z,26.70
2018-06-30T12:07:22.568Z,26.00
2018-06-30T12:09:51.695Z,25.70
2018-06-30T12:14:49.516Z,25.80
2018-06-30T12:17:18.564Z,26.30
2018-06-30T12:19:47.626Z,26.00
2018-06-30T12:22:16.671Z,26.50
2018-06-30T12:27:14.439Z,25.50
2018-06-30T12:29:43.515Z,26.20
2018-06-30T12:32:12.598Z,25.80
2018-06-30T12:34:41.669Z,24.70
2018-06-30T12:37:10.820Z,25.50
2018-06-30T12:39:39.889Z,23.60
2018-06-30T12:42:09.168Z,25.20
2018-06-30T12:44:38.232Z,26.00
2018-06-30T12:49:36.028Z,23.90
2018-06-30T12:52:05.112Z,22.50
2018-06-30T12:57:02.901Z,21.50
2018-06-30T12:59:31.952Z,19.50
2018-06-30T13:02:01.027Z,19.30
2018-06-30T13:04:30.076Z,18.90
2018-06-30T13:06:59.146Z,17.70
2018-06-30T13:09:28.196Z,18.10
2018-06-30T13:11:57.259Z,18.20
2018-06-30T13:14:26.323Z,19.00
2018-06-30T13:16:55.388Z,17.80
2018-06-30T13:19:24.440Z,17.50
2018-06-30T13:21:53.508Z,16.80
2018-06-30T13:24:22.583Z,16.40
2018-06-30T13:26:51.648Z,17.50
2018-06-30T13:31:49.424Z,17.60
2018-06-30T13:36:47.181Z,16.80
2018-06-30T13:39:16.243Z,16.50
2018-06-30T13:41:45.316Z,17.20
2018-06-30T13:44:14.367Z,18.30
2018-06-30T13:46:43.436Z,18.00
2018-06-30T13:49:12.489Z,17.30
2018-06-30T14:01:36.323Z,16.80
2018-06-30T14:04:05.393Z,16.20
2018-06-30T14:06:34.460Z,15.40
2018-06-30T14:09:03.985Z,17.90
2018-06-30T14:11:33.056Z,17.90
2018-06-30T14:14:02.108Z,17.70
2018-06-30T14:16:31.225Z,17.90
2018-06-30T14:19:00.247Z,18.40
2018-06-30T14:21:29.307Z,18.00
2018-06-30T14:26:27.048Z,16.00
2018-06-30T14:28:56.428Z,16.80
2018-06-30T14:31:25.495Z,15.40
2018-06-30T14:36:23.393Z,17.00
2018-06-30T14:38:52.436Z,17.40
2018-06-30T14:41:21.499Z,16.50
2018-06-30T14:43:50.561Z,15.20
2018-06-30T14:51:16.991Z,15.10
2018-06-30T14:53:46.040Z,14.90
2018-06-30T14:56:15.116Z,15.90
2018-06-30T15:01:12.856Z,17.80
2018-06-30T15:03:41.912Z,16.60
2018-06-30T15:06:10.980Z,17.10
2018-06-30T15:08:40.033Z,17.10
2018-06-30T15:11:09.092Z,17.30
2018-06-30T15:13:38.145Z,16.40
2018-06-30T15:16:07.236Z,16.50
2018-06-30T15:18:36.287Z,15.60
2018-06-30T15:21:05.512Z,15.40
2018-06-30T15:23:34.555Z,15.60
2018-06-30T15:26:03.673Z,15.90
2018-06-30T15:31:01.421Z,14.30
2018-06-30T15:33:30.473Z,15.30
2018-06-30T15:35:59.611Z,14.20
2018-06-30T15:38:28.624Z,14.90
2018-06-30T15:40:57.692Z,14.20
2018-06-30T15:43:26.743Z,14.30
2018-06-30T15:45:55.816Z,13.90
2018-06-30T15:48:24.855Z,13.30
2018-06-30T15:50:53.905Z,15.20
2018-06-30T15:53:22.976Z,15.60
2018-06-30T15:55:52.033Z,15.20
2018-06-30T15:58:21.100Z,14.40
2018-06-30T16:03:19.020Z,14.50
2018-06-30T16:05:48.096Z,14.40
2018-06-30T16:10:45.840Z,13.70
2018-06-30T16:13:14.904Z,14.00
2018-06-30T16:15:43.972Z,13.60
2018-06-30T16:18:13.040Z,13.20
2018-06-30T16:20:42.092Z,12.70
2018-06-30T16:23:11.152Z,13.60
2018-06-30T16:28:08.981Z,14.50
2018-06-30T16:30:38.057Z,14.00
2018-06-30T16:33:07.139Z,13.40
2018-06-30T16:35:36.194Z,13.60
2018-06-30T16:38:05.264Z,13.90
2018-06-30T16:40:34.324Z,13.40
2018-06-30T16:43:03.400Z,13.10
2018-06-30T16:48:01.148Z,14.00
2018-06-30T16:50:30.202Z,13.70
2018-06-30T16:52:59.276Z,13.30
2018-06-30T16:55:28.323Z,13.60
2018-06-30T16:57:57.386Z,12.80
2018-06-30T17:02:55.144Z,13.50
2018-06-30T17:05:24.232Z,14.10
2018-06-30T17:07:53.304Z,14.20
2018-06-30T17:10:22.356Z,13.40
2018-06-30T17:12:51.424Z,13.20
2018-06-30T17:15:20.500Z,13.50
2018-06-30T17:17:49.571Z,13.90
2018-06-30T17:20:18.631Z,14.10
2018-06-30T17:25:16.408Z,14.20
2018-06-30T17:30:14.183Z,14.40
2018-06-30T17:32:43.244Z,13.90
2018-06-30T17:35:12.292Z,14.30
2018-06-30T17:40:10.049Z,14.20
2018-06-30T17:42:39.120Z,14.40
2018-06-30T17:45:08.296Z,13.20
2018-06-30T17:47:37.364Z,14.50
2018-06-30T17:50:06.556Z,14.10
2018-06-30T17:57:32.984Z,14.70
2018-06-30T18:00:02.038Z,14.40
2018-06-30T18:02:31.128Z,15.90
2018-06-30T18:05:00.180Z,15.70
2018-06-30T18:07:29.349Z,15.50
2018-06-30T18:09:58.454Z,15.40
2018-06-30T18:12:27.551Z,15.40
2018-06-30T18:14:56.615Z,16.30
2018-06-30T18:19:54.349Z,16.30
2018-06-30T18:22:23.479Z,16.10
2018-06-30T18:27:21.363Z,15.80
2018-06-30T18:32:19.448Z,16.00
2018-06-30T18:37:17.199Z,16.30
2018-06-30T18:39:46.256Z,17.30
2018-06-30T18:42:15.356Z,16.90
2018-06-30T18:44:44.787Z,17.30
2018-06-30T18:47:13.840Z,17.30
2018-06-30T18:49:42.908Z,18.60
2018-06-30T18:52:12.193Z,21.00
2018-06-30T18:54:41.327Z,21.80
2018-06-30T18:59:39.296Z,23.70
2018-06-30T19:02:08.348Z,24.50
2018-06-30T19:04:37.413Z,25.40
2018-06-30T19:07:06.461Z,26.80
2018-06-30T19:09:35.523Z,26.90
2018-06-30T19:12:04.581Z,27.30
2018-06-30T19:14:33.660Z,28.70
2018-06-30T19:17:02.721Z,28.80
2018-06-30T19:19:31.781Z,29.10
2018-06-30T19:24:29.612Z,30.30
2018-06-30T19:26:58.663Z,29.90
2018-06-30T19:31:56.441Z,30.50
2018-06-30T19:36:54.304Z,32.00
2018-06-30T19:39:23.376Z,32.40
2018-06-30T19:41:52.799Z,33.40
2018-06-30T19:44:21.864Z,33.30
2018-06-30T19:46:51.136Z,33.80
2018-06-30T19:49:21.080Z,34.80
2018-06-30T19:51:50.126Z,34.80
2018-06-30T19:54:19.189Z,34.90
2018-06-30T19:56:48.242Z,35.80
2018-06-30T19:59:17.316Z,36.50
2018-06-30T20:04:15.348Z,36.70
2018-06-30T20:06:44.396Z,37.10
2018-06-30T20:09:13.465Z,37.60
2018-06-30T20:11:42.512Z,38.00
2018-06-30T20:14:11.619Z,38.40
2018-06-30T20:16:40.667Z,38.40
2018-06-30T20:19:09.735Z,38.40
2018-06-30T20:21:38.788Z,39.30
2018-06-30T20:29:05.380Z,39.30
2018-06-30T20:31:34.344Z,40.00
2018-06-30T20:34:04.252Z,40.20
2018-06-30T20:36:33.304Z,40.90
2018-06-30T20:39:02.376Z,40.90
2018-06-30T20:41:31.415Z,41.30
2018-06-30T20:44:00.490Z,41.50
2018-06-30T20:46:29.527Z,42.10
2018-06-30T20:48:58.704Z,42.50
2018-06-30T20:51:27.764Z,42.40
2018-06-30T20:53:56.828Z,42.90
2018-06-30T20:56:25.914Z,43.40
2018-06-30T21:01:23.769Z,44.60
2018-06-30T21:03:52.908Z,44.40
2018-06-30T21:08:50.684Z,44.10
2018-06-30T21:11:20.083Z,44.30
2018-06-30T21:13:49.137Z,44.80
2018-06-30T21:16:18.205Z,44.50
2018-06-30T21:18:47.263Z,45.30
2018-06-30T21:21:16.307Z,44.70
2018-06-30T21:23:45.373Z,45.20
2018-06-30T21:26:14.428Z,45.00
2018-06-30T21:28:43.487Z,45.00
2018-06-30T21:31:12.527Z,45.20
2018-06-30T21:33:41.596Z,46.00
2018-06-30T21:36:10.640Z,45.70
2018-06-30T21:38:39.683Z,45.90
2018-06-30T21:41:08.763Z,46.00
2018-06-30T21:43:37.803Z,45.90
2018-06-30T21:46:07.106Z,46.00
2018-06-30T21:48:36.580Z,47.00
2018-06-30T21:51:05.664Z,47.20
2018-06-30T21:53:34.716Z,46.80
2018-06-30T21:56:03.784Z,47.10
2018-06-30T21:58:32.833Z,47.40
2018-06-30T22:04:01.452Z,47.70
2018-06-30T22:06:30.509Z,48.00
2018-06-30T22:08:59.580Z,47.80
2018-06-30T22:11:28.663Z,48.40
2018-06-30T22:13:57.703Z,48.50
2018-06-30T22:16:26.789Z,49.00
2018-06-30T22:18:55.844Z,49.20
2018-06-30T22:21:24.912Z,49.10
2018-06-30T22:26:22.661Z,49.40
2018-06-30T22:28:51.722Z,50.20
2018-06-30T22:31:20.817Z,49.90
2018-06-30T22:33:49.872Z,49.80
2018-06-30T22:38:47.696Z,50.70
2018-06-30T22:41:16.760Z,50.60
2018-06-30T22:43:45.812Z,50.70
2018-06-30T22:46:14.883Z,51.20
2018-06-30T22:48:43.927Z,51.50
2018-06-30T22:53:41.732Z,52.10
2018-06-30T22:58:39.512Z,51.60
2018-06-30T23:03:37.299Z,51.70
2018-06-30T23:08:39.304Z,51.80
2018-06-30T23:11:08.372Z,51.70
2018-06-30T23:16:06.197Z,52.10
2018-06-30T23:18:35.235Z,51.80
2018-06-30T23:21:04.303Z,52.40
2018-06-30T23:23:33.429Z,52.70
2018-06-30T23:26:02.464Z,53.10
2018-06-30T23:28:31.509Z,53.20
2018-06-30T23:33:29.781Z,54.20
2018-06-30T23:35:58.856Z,53.90
2018-06-30T23:38:27.919Z,54.20
2018-06-30T23:48:23.084Z,54.80
2018-06-30T23:53:20.832Z,55.70
2018-06-30T23:55:49.912Z,55.40
2018-06-30T23:58:18.959Z,55.20
